CheckWX is a tool to help pilots better visualize weather data.  It is not intended as a substitute for an official pre-flight weather briefing.

05:11:40 UTC

ENQR METAR
Snorre B Oilp
Snorre B Oilp, Norway
Current

22 mins ago

ENQR 260450Z AUTO 16027KT 0050NDV NCD 13/13 Q1014 W///S4
Observed
Aug-26 @ 04:50 UTC
Wind
  • 160° at 27 KTS
Visibility
Cloud Levels
  • Clear skies
Temperature
13°C / 55°F
Dewpoint
13°C / 55°F
Humidity
100%
Altimeter
29.94" Hg
Pressure
1013.92 hPa
Previous

52 mins ago

ENQR 260420Z AUTO 17026KT 0050NDV NCD 14/13 Q1015 W///S4
Observed
Aug-26 @ 04:20 UTC
Wind
  • 170° at 26 KTS
Visibility
Cloud Levels
  • Clear skies
Temperature
14°C / 57°F
Dewpoint
13°C / 55°F
Humidity
94%
Altimeter
29.97" Hg
Pressure
1014.92 hPa
Previous

1 hour ago

ENQR 260350Z AUTO 16027KT 0050NDV NCD 14/13 Q1015 W///S4
Observed
Aug-26 @ 03:50 UTC
Wind
  • 160° at 27 KTS
Visibility
Cloud Levels
  • Clear skies
Temperature
14°C / 57°F
Dewpoint
13°C / 55°F
Humidity
94%
Altimeter
29.97" Hg
Pressure
1014.92 hPa